Date,TemperatureHighF,TemperatureAvgF,TemperatureLowF,DewpointHighF,DewpointAvgF,DewpointLowF,HumidityHigh,HumidityAvg,HumidityLow,PressureMaxIn,PressureMinIn,WindSpeedMaxMPH,WindSpeedAvgMPH,GustSpeedMaxMPH,PrecipitationSumIn
2013-4-1,78,57,40,42,36,31,78,51,20,29.93,29.79,18,3,18,0.00
2013-4-2,68,52,40,42,37,30,87,60,25,29.98,29.90,21,2,24,0.00
2013-4-3,71,55,38,39,34,26,84,50,21,30.03,29.88,14,2,14,0.00
2013-4-4,56,50,45,49,42,32,99,75,41,29.87,29.61,10,1,10,0.13
2013-4-5,62,51,41,46,41,37,98,71,40,29.73,29.67,22,3,22,0.02
2013-4-6,57,49,41,44,36,27,97,64,35,29.78,29.65,23,3,24,0.02
2013-4-7,52,43,34,40,33,27,97,71,39,29.72,29.48,24,2,24,0.46
2013-4-8,56,46,37,42,34,-100,91,68,42,30.15,29.71,11,-6,11,0.02
2013-4-9,61,48,36,40,35,30,87,63,35,30.26,30.06,15,2,15,0.00
2013-4-10,59,50,43,48,37,29,88,64,35,30.06,29.76,32,3,33,0.04
2013-4-11,57,47,37,36,28,20,85,52,24,30.08,30.02,25,4,25,0.00
2013-4-12,55,43,34,36,30,22,87,61,33,30.06,29.51,22,2,22,0.00
2013-4-13,51,43,33,31,25,17,88,51,31,29.81,29.48,31,5,33,0.00
2013-4-14,54,42,32,32,25,10,81,54,21,29.87,29.78,18,2,18,0.00
2013-4-15,51,40,33,37,32,28,93,75,41,30.12,29.57,14,2,22,0.13
2013-4-16,54,43,34,34,23,11,91,53,19,30.26,30.12,17,1,17,0.00
2013-4-17,59,47,31,33,26,18,77,46,21,30.39,30.25,28,4,28,0.00
2013-4-18,64,52,39,41,33,28,82,51,31,30.25,30.05,22,3,22,0.00
2013-4-19,62,52,41,41,37,33,91,60,36,30.05,29.86,29,4,29,0.00
2013-4-20,60,54,41,36,32,26,77,45,30,30.02,29.92,38,6,38,0.00
2013-4-21,58,48,36,37,31,23,93,56,28,30.26,29.97,25,5,25,0.01
2013-4-22,61,45,31,33,22,2,91,50,12,30.47,30.26,13,2,13,0.00
2013-4-23,65,47,34,35,25,14,69,47,14,30.31,30.13,13,2,13,0.00
2013-4-24,72,53,35,38,28,12,74,44,11,30.27,29.86,24,3,24,0.00
2013-4-25,73,61,44,42,33,22,67,37,23,29.96,29.83,26,5,26,0.00
2013-4-26,77,62,46,42,35,20,78,44,12,30.03,29.94,25,3,25,0.00
2013-4-27,68,53,41,40,35,22,82,55,19,30.01,29.92,32,3,35,0.00
2013-4-28,61,51,39,42,34,25,91,54,27,30.00,29.77,31,4,31,0.00
2013-4-29,51,47,37,41,25,13,87,44,24,29.97,29.69,37,6,37,0.02
2013-4-30,57,43,32,34,24,11,80,51,17,30.33,29.98,24,3,24,0.00